createdAt,value
2022-10-31T00:01:36.815Z,7.85
2022-10-31T00:04:06.507Z,7.83
2022-10-31T00:06:34.775Z,7.83
2022-10-31T00:09:05.518Z,7.81
2022-10-31T00:11:33.798Z,7.80
2022-10-31T00:14:02.449Z,7.77
2022-10-31T00:16:31.205Z,7.75
2022-10-31T00:19:03.712Z,7.73
2022-10-31T00:21:33.859Z,7.73
2022-10-31T00:24:02.857Z,7.72
2022-10-31T00:26:32.429Z,7.70
2022-10-31T00:29:01.868Z,7.67
2022-10-31T00:31:30.948Z,7.65
2022-10-31T00:33:59.496Z,7.64
2022-10-31T00:36:28.545Z,7.64
2022-10-31T00:38:56.718Z,7.62
2022-10-31T00:41:26.234Z,7.59
2022-10-31T00:43:54.492Z,7.57
2022-10-31T00:46:22.670Z,7.55
2022-10-31T00:48:52.996Z,7.53
2022-10-31T00:51:21.254Z,7.51
2022-10-31T00:53:49.505Z,7.50
2022-10-31T00:56:17.681Z,7.47
2022-10-31T00:58:45.974Z,7.46
2022-10-31T01:01:14.420Z,7.44
2022-10-31T01:03:42.746Z,7.42
2022-10-31T01:06:15.247Z,7.41
2022-10-31T01:08:44.296Z,7.41
2022-10-31T01:11:21.085Z,7.39
2022-10-31T01:13:52.838Z,7.37
2022-10-31T01:16:23.899Z,7.35
2022-10-31T01:18:52.701Z,7.34
2022-10-31T01:21:27.652Z,7.32
2022-10-31T01:23:58.778Z,7.30
2022-10-31T01:26:31.800Z,7.27
2022-10-31T01:29:07.639Z,7.25
2022-10-31T01:31:40.047Z,7.23
2022-10-31T01:34:11.401Z,7.23
2022-10-31T01:36:39.827Z,7.24
2022-10-31T01:39:13.780Z,7.22
2022-10-31T01:41:45.117Z,7.20
2022-10-31T01:44:16.365Z,7.19
2022-10-31T01:46:55.738Z,7.18
2022-10-31T01:49:37.305Z,7.20
2022-10-31T01:52:15.199Z,7.19
2022-10-31T01:54:54.081Z,7.18
2022-10-31T01:57:23.449Z,7.16
2022-10-31T01:59:59.137Z,7.12
2022-10-31T02:02:29.784Z,7.09
2022-10-31T02:05:01.662Z,7.07
2022-10-31T02:07:49.922Z,7.07
2022-10-31T02:10:20.153Z,7.05
2022-10-31T02:12:49.931Z,7.03
2022-10-31T02:15:18.305Z,7.00
2022-10-31T02:17:47.400Z,6.98
2022-10-31T02:20:20.547Z,6.96
2022-10-31T02:23:02.236Z,6.93
2022-10-31T02:26:16.073Z,6.90
2022-10-31T02:29:22.249Z,6.88
2022-10-31T02:32:21.609Z,6.86
2022-10-31T02:35:32.218Z,6.84
2022-10-31T02:38:22.408Z,6.80
2022-10-31T02:41:09.280Z,6.76
2022-10-31T02:44:12.593Z,6.74
2022-10-31T02:46:51.182Z,6.72
2022-10-31T02:49:30.563Z,6.71
2022-10-31T02:51:58.976Z,6.70
2022-10-31T02:54:29.646Z,6.70
2022-10-31T02:57:08.872Z,6.68
2022-10-31T02:59:41.739Z,6.65
2022-10-31T03:02:44.288Z,6.61
2022-10-31T03:05:48.088Z,6.60
2022-10-31T03:08:26.028Z,6.61
2022-10-31T03:11:01.085Z,6.63
2022-10-31T03:13:29.234Z,6.63
2022-10-31T03:16:26.408Z,6.59
2022-10-31T03:19:05.859Z,6.56
2022-10-31T03:21:57.304Z,6.53
2022-10-31T03:24:31.003Z,6.50
2022-10-31T03:27:02.220Z,6.47
2022-10-31T03:29:36.615Z,6.45
2022-10-31T03:32:14.835Z,6.43
2022-10-31T03:34:46.581Z,6.42
2022-10-31T03:37:20.803Z,6.40
2022-10-31T03:39:50.936Z,6.38
2022-10-31T03:42:25.689Z,6.35
2022-10-31T03:45:02.633Z,6.32
2022-10-31T03:47:32.247Z,6.30
2022-10-31T03:50:02.046Z,6.30
2022-10-31T03:52:49.030Z,6.28
2022-10-31T03:55:43.467Z,6.28
2022-10-31T03:58:38.503Z,6.29
2022-10-31T04:01:10.760Z,6.30
2022-10-31T04:03:40.513Z,6.30
2022-10-31T04:06:14.864Z,6.31
2022-10-31T04:08:57.069Z,6.32
2022-10-31T04:11:32.713Z,6.32
2022-10-31T04:14:36.426Z,6.32
2022-10-31T04:17:10.109Z,6.31
2022-10-31T04:19:40.953Z,6.29
2022-10-31T04:22:10.351Z,6.28
2022-10-31T04:24:41.633Z,6.27
2022-10-31T04:27:12.871Z,6.27
2022-10-31T04:29:41.130Z,6.27
2022-10-31T04:32:10.342Z,6.26
2022-10-31T04:34:39.697Z,6.26
2022-10-31T04:37:08.142Z,6.26
2022-10-31T04:39:36.764Z,6.26
2022-10-31T04:42:23.849Z,6.25
2022-10-31T04:44:52.257Z,6.24
2022-10-31T04:47:20.944Z,6.23
2022-10-31T04:49:49.177Z,6.21
2022-10-31T04:52:18.476Z,6.19
2022-10-31T04:54:46.891Z,6.17
2022-10-31T04:57:46.338Z,6.13
2022-10-31T05:00:17.811Z,6.11
2022-10-31T05:02:46.980Z,6.10
2022-10-31T05:05:17.379Z,6.10
2022-10-31T05:07:48.107Z,6.10
2022-10-31T05:10:19.667Z,6.10
2022-10-31T05:12:56.907Z,6.09
2022-10-31T05:15:51.865Z,6.06
2022-10-31T05:18:20.061Z,6.02
2022-10-31T05:21:23.897Z,5.97
2022-10-31T05:24:00.009Z,5.94
2022-10-31T05:26:29.376Z,5.92
2022-10-31T05:28:57.646Z,5.89
2022-10-31T05:31:25.862Z,5.88
2022-10-31T05:33:55.404Z,5.87
2022-10-31T05:36:42.279Z,5.85
2022-10-31T05:39:17.146Z,5.85
2022-10-31T05:41:49.085Z,5.84
2022-10-31T05:44:43.477Z,5.85
2022-10-31T05:47:31.909Z,5.86
2022-10-31T05:50:21.436Z,5.87
2022-10-31T05:53:02.603Z,5.89
2022-10-31T05:55:37.500Z,5.90
2022-10-31T05:58:12.278Z,5.92
2022-10-31T06:00:42.869Z,5.94
2022-10-31T06:03:11.601Z,5.95
2022-10-31T06:05:56.544Z,5.98
2022-10-31T06:08:32.046Z,6.00
2022-10-31T06:11:03.804Z,6.03
2022-10-31T06:13:52.250Z,6.07
2022-10-31T06:16:33.136Z,6.12
2022-10-31T06:19:09.926Z,6.16
2022-10-31T06:21:38.263Z,6.21
2022-10-31T06:24:06.569Z,6.26
2022-10-31T06:26:55.344Z,6.32
2022-10-31T06:29:23.785Z,6.39
2022-10-31T06:32:03.872Z,6.46
2022-10-31T06:34:32.249Z,6.53
2022-10-31T06:37:00.513Z,6.62
2022-10-31T06:39:29.417Z,6.71
2022-10-31T06:41:57.713Z,6.80
2022-10-31T06:44:28.183Z,6.90
2022-10-31T06:46:56.756Z,6.99
2022-10-31T06:49:46.321Z,7.11
2022-10-31T06:52:17.235Z,7.23
2022-10-31T06:54:45.447Z,7.32
2022-10-31T06:57:15.811Z,7.44
2022-10-31T06:59:44.191Z,7.54
2022-10-31T07:02:31.184Z,7.67
2022-10-31T07:04:59.487Z,7.80
2022-10-31T07:07:27.674Z,7.91
2022-10-31T07:09:55.932Z,8.04
2022-10-31T07:12:37.660Z,8.18
2022-10-31T07:15:06.368Z,8.30
2022-10-31T07:17:34.944Z,8.42
2022-10-31T07:20:03.755Z,8.56
2022-10-31T07:22:37.477Z,8.69
2022-10-31T07:25:07.627Z,8.83
2022-10-31T07:27:54.682Z,8.99
2022-10-31T07:30:23.078Z,9.14
2022-10-31T07:32:52.806Z,9.29
2022-10-31T07:35:24.315Z,9.44
2022-10-31T07:37:59.547Z,9.60
2022-10-31T07:40:28.112Z,9.76
2022-10-31T07:42:59.227Z,9.92
2022-10-31T07:45:51.051Z,10.13
2022-10-31T07:48:58.103Z,10.38
2022-10-31T07:51:58.684Z,10.66
2022-10-31T07:54:42.052Z,10.85
2022-10-31T07:57:10.974Z,11.04
2022-10-31T07:59:39.727Z,11.20
2022-10-31T08:02:09.777Z,11.39
2022-10-31T08:05:01.142Z,11.55
2022-10-31T08:08:06.742Z,11.77
2022-10-31T08:10:36.164Z,11.99
2022-10-31T08:13:07.990Z,12.19
2022-10-31T08:15:40.536Z,12.40
2022-10-31T08:18:35.456Z,12.60
2022-10-31T08:21:05.873Z,12.81
2022-10-31T08:23:34.065Z,12.98
2022-10-31T08:26:02.309Z,13.14
2022-10-31T08:28:33.488Z,13.31
2022-10-31T08:31:02.255Z,13.50
2022-10-31T08:33:42.561Z,13.66
2022-10-31T08:36:47.332Z,13.87
2022-10-31T08:39:26.652Z,14.07
2022-10-31T08:41:54.876Z,14.25
2022-10-31T08:44:23.145Z,14.44
2022-10-31T08:46:51.568Z,14.64
2022-10-31T08:49:19.831Z,14.87
2022-10-31T08:51:49.557Z,15.09
2022-10-31T08:54:17.997Z,15.31
2022-10-31T08:56:58.364Z,15.52
2022-10-31T08:59:38.750Z,15.73
2022-10-31T09:02:25.918Z,15.94
2022-10-31T09:04:58.895Z,16.16
2022-10-31T09:07:27.276Z,16.35
2022-10-31T09:09:57.094Z,16.52
2022-10-31T09:12:25.520Z,16.66
2022-10-31T09:15:12.227Z,16.84
2022-10-31T09:17:54.690Z,16.98
2022-10-31T09:20:52.137Z,17.10
2022-10-31T09:23:23.297Z,17.23
2022-10-31T09:25:53.741Z,17.34
2022-10-31T09:28:37.262Z,17.46
2022-10-31T09:31:14.380Z,17.58
2022-10-31T09:34:01.759Z,17.70
2022-10-31T09:36:39.946Z,17.85
2022-10-31T09:39:14.617Z,17.99
2022-10-31T09:42:21.304Z,18.08
2022-10-31T09:45:27.636Z,18.19
2022-10-31T09:48:35.077Z,18.29
2022-10-31T09:51:15.942Z,18.39
2022-10-31T09:54:28.505Z,18.47
2022-10-31T09:57:01.416Z,18.60
2022-10-31T09:59:35.285Z,18.71
2022-10-31T10:02:22.085Z,18.80
2022-10-31T10:05:11.605Z,18.87
2022-10-31T10:07:53.274Z,18.92
2022-10-31T10:10:49.042Z,18.99
2022-10-31T10:14:12.887Z,19.12
2022-10-31T10:16:50.306Z,19.27
2022-10-31T10:19:33.845Z,19.35
2022-10-31T10:22:05.343Z,19.41
2022-10-31T10:24:43.710Z,19.47
2022-10-31T10:27:26.880Z,19.54
2022-10-31T10:30:14.169Z,19.63
2022-10-31T10:33:00.305Z,19.78
2022-10-31T10:35:30.933Z,19.85
2022-10-31T10:38:17.362Z,19.94
2022-10-31T10:40:47.253Z,20.04
2022-10-31T10:43:23.882Z,20.15
2022-10-31T10:46:32.728Z,20.25
2022-10-31T10:49:51.770Z,20.45
2022-10-31T10:52:44.607Z,20.73
2022-10-31T10:55:31.584Z,20.96
2022-10-31T10:58:05.716Z,21.15
2022-10-31T11:00:42.083Z,21.22
2022-10-31T11:03:11.982Z,21.28
2022-10-31T11:05:43.603Z,21.36
2022-10-31T11:08:12.737Z,21.45
2022-10-31T11:10:40.979Z,21.65
2022-10-31T11:13:17.057Z,21.81
2022-10-31T11:15:56.903Z,21.94
2022-10-31T11:18:28.778Z,22.02
2022-10-31T11:21:00.294Z,22.09
2022-10-31T11:23:29.875Z,22.17
2022-10-31T11:26:02.888Z,22.20
2022-10-31T11:28:36.291Z,22.28
2022-10-31T11:31:13.169Z,22.34
2022-10-31T11:33:49.448Z,22.35
2022-10-31T11:36:28.265Z,22.42
2022-10-31T11:38:56.792Z,22.49
2022-10-31T11:41:33.996Z,22.49
2022-10-31T11:44:31.123Z,22.46
2022-10-31T11:47:03.258Z,22.45
2022-10-31T11:49:35.786Z,22.51
2022-10-31T11:52:24.607Z,22.68
2022-10-31T11:55:16.108Z,22.72
2022-10-31T11:57:53.380Z,22.82
2022-10-31T12:00:26.325Z,23.01
2022-10-31T12:03:13.344Z,23.13
2022-10-31T12:05:44.446Z,23.28
2022-10-31T12:08:14.618Z,23.40
2022-10-31T12:11:12.733Z,23.48
2022-10-31T12:14:03.545Z,23.44
2022-10-31T12:16:55.645Z,23.41
2022-10-31T12:19:51.242Z,23.57
2022-10-31T12:22:35.328Z,23.57
2022-10-31T12:25:26.935Z,23.52
2022-10-31T12:28:14.166Z,23.66
2022-10-31T12:30:52.641Z,23.79
2022-10-31T12:33:39.478Z,23.93
2022-10-31T12:36:26.545Z,24.03
2022-10-31T12:39:06.831Z,24.14
2022-10-31T12:41:52.334Z,24.25
2022-10-31T12:44:41.705Z,24.16
2022-10-31T12:47:44.496Z,23.89
2022-10-31T12:50:25.211Z,23.75
2022-10-31T12:52:53.514Z,23.63
2022-10-31T12:55:36.948Z,23.43
2022-10-31T12:58:18.759Z,23.25
2022-10-31T13:00:52.963Z,23.19
2022-10-31T13:03:22.243Z,23.18
2022-10-31T13:05:59.677Z,23.16
2022-10-31T13:08:36.958Z,23.15
2022-10-31T13:11:15.856Z,23.19
2022-10-31T13:13:55.229Z,23.28
2022-10-31T13:16:30.050Z,23.28
2022-10-31T13:19:34.033Z,23.26
2022-10-31T13:22:20.202Z,23.14
2022-10-31T13:24:58.366Z,22.95
2022-10-31T13:27:31.550Z,22.85
2022-10-31T13:30:16.494Z,22.80
2022-10-31T13:33:14.813Z,22.75
2022-10-31T13:36:09.249Z,22.68
2022-10-31T13:38:37.439Z,22.57
2022-10-31T13:41:32.334Z,22.46
2022-10-31T13:44:25.221Z,22.29
2022-10-31T13:46:56.475Z,22.09
2022-10-31T13:49:24.597Z,21.88
2022-10-31T13:51:55.615Z,21.71
2022-10-31T13:54:35.435Z,21.55
2022-10-31T13:57:19.961Z,21.43
2022-10-31T14:00:01.057Z,21.27
2022-10-31T14:02:33.126Z,21.12
2022-10-31T14:05:06.863Z,20.98
2022-10-31T14:07:45.181Z,20.85
2022-10-31T14:10:30.816Z,20.70
2022-10-31T14:13:26.224Z,20.54
2022-10-31T14:15:59.565Z,20.38
2022-10-31T14:18:38.748Z,20.23
2022-10-31T14:21:23.969Z,20.04
2022-10-31T14:23:55.152Z,19.85
2022-10-31T14:26:27.552Z,19.66
2022-10-31T14:28:58.589Z,19.54
2022-10-31T14:31:38.791Z,19.39
2022-10-31T14:34:20.019Z,19.24
2022-10-31T14:36:57.808Z,19.06
2022-10-31T14:40:02.952Z,18.89
2022-10-31T14:42:38.397Z,18.72
2022-10-31T14:45:28.422Z,18.57
2022-10-31T14:48:12.001Z,18.39
2022-10-31T14:50:49.920Z,18.21
2022-10-31T14:53:28.864Z,18.06
2022-10-31T14:56:02.771Z,17.89
2022-10-31T14:58:47.350Z,17.70
2022-10-31T15:01:29.989Z,17.52
2022-10-31T15:04:24.191Z,17.35
2022-10-31T15:07:03.645Z,17.17
2022-10-31T15:09:38.906Z,17.01
2022-10-31T15:12:25.578Z,16.85
2022-10-31T15:14:54.642Z,16.67
2022-10-31T15:17:25.838Z,16.53
2022-10-31T15:19:55.530Z,16.38
2022-10-31T15:22:27.746Z,16.23
2022-10-31T15:24:57.613Z,16.07
2022-10-31T15:27:26.115Z,15.90
2022-10-31T15:29:57.105Z,15.76
2022-10-31T15:32:30.240Z,15.61
2022-10-31T15:34:58.571Z,15.46
2022-10-31T15:37:28.021Z,15.33
2022-10-31T15:39:56.305Z,15.20
2022-10-31T15:42:35.730Z,15.05
2022-10-31T15:45:17.968Z,14.90
2022-10-31T15:47:59.618Z,14.74
2022-10-31T15:50:33.737Z,14.59
2022-10-31T15:53:03.433Z,14.45
2022-10-31T15:55:46.362Z,14.31
2022-10-31T15:58:17.378Z,14.16
2022-10-31T16:00:46.346Z,14.02
2022-10-31T16:03:20.763Z,13.86
2022-10-31T16:05:56.514Z,13.74
2022-10-31T16:08:30.972Z,13.61
2022-10-31T16:11:15.645Z,13.48
2022-10-31T16:14:12.331Z,13.35
2022-10-31T16:16:45.401Z,13.22
2022-10-31T16:19:18.622Z,13.11
2022-10-31T16:21:48.998Z,13.01
2022-10-31T16:24:21.353Z,12.88
2022-10-31T16:26:52.673Z,12.75
2022-10-31T16:29:45.274Z,12.61
2022-10-31T16:32:26.882Z,12.45
2022-10-31T16:35:22.554Z,12.32
2022-10-31T16:37:50.881Z,12.19
2022-10-31T16:40:19.957Z,12.08
2022-10-31T16:42:50.266Z,11.99
2022-10-31T16:45:27.352Z,11.90
2022-10-31T16:48:04.618Z,11.81
2022-10-31T16:50:33.902Z,11.71
2022-10-31T16:53:13.888Z,11.62
2022-10-31T16:55:59.399Z,11.53
2022-10-31T16:58:33.157Z,11.46
2022-10-31T17:01:05.320Z,11.41
2022-10-31T17:03:33.617Z,11.34
2022-10-31T17:06:01.887Z,11.27
2022-10-31T17:08:31.188Z,11.21
2022-10-31T17:10:59.744Z,11.14
2022-10-31T17:13:31.403Z,11.09
2022-10-31T17:16:01.903Z,11.04
2022-10-31T17:18:31.236Z,11.00
2022-10-31T17:21:02.112Z,10.95
2022-10-31T17:23:30.495Z,10.88
2022-10-31T17:25:59.558Z,10.82
2022-10-31T17:28:27.891Z,10.76
2022-10-31T17:30:59.508Z,10.70
2022-10-31T17:33:28.109Z,10.65
2022-10-31T17:35:56.423Z,10.59
2022-10-31T17:38:24.728Z,10.53
2022-10-31T17:40:53.085Z,10.46
2022-10-31T17:43:21.538Z,10.41
2022-10-31T17:45:49.714Z,10.34
2022-10-31T17:48:17.923Z,10.27
2022-10-31T17:50:46.211Z,10.20
2022-10-31T17:53:14.461Z,10.14
2022-10-31T17:55:42.621Z,10.10
2022-10-31T17:58:13.929Z,10.06
2022-10-31T18:00:44.744Z,10.03
2022-10-31T18:03:15.819Z,9.98
2022-10-31T18:05:53.649Z,9.93
2022-10-31T18:08:28.751Z,9.86
2022-10-31T18:10:56.828Z,9.80
2022-10-31T18:13:25.067Z,9.78
2022-10-31T18:15:54.154Z,9.78
2022-10-31T18:18:22.542Z,9.83
2022-10-31T18:20:50.838Z,9.93
2022-10-31T18:23:19.584Z,10.08
2022-10-31T18:25:47.733Z,10.26
2022-10-31T18:28:16.032Z,10.46
2022-10-31T18:30:44.307Z,10.64
2022-10-31T18:33:12.806Z,10.84
2022-10-31T18:35:41.382Z,11.02
2022-10-31T18:38:10.179Z,11.14
2022-10-31T18:40:39.567Z,11.25
2022-10-31T18:43:08.069Z,11.35
2022-10-31T18:45:46.972Z,11.43
2022-10-31T18:48:17.697Z,11.49
2022-10-31T18:50:46.081Z,11.56
2022-10-31T18:53:14.342Z,11.62
2022-10-31T18:55:47.247Z,11.65
2022-10-31T18:58:18.511Z,11.69
2022-10-31T19:00:47.726Z,11.72
2022-10-31T19:03:19.704Z,11.75
2022-10-31T19:05:56.525Z,11.75
2022-10-31T19:08:25.431Z,11.74
2022-10-31T19:10:53.797Z,11.73
2022-10-31T19:13:22.499Z,11.74
2022-10-31T19:15:50.756Z,11.74
2022-10-31T19:18:19.740Z,11.74
2022-10-31T19:20:48.070Z,11.75
2022-10-31T19:23:17.726Z,11.76
2022-10-31T19:25:45.970Z,11.75
2022-10-31T19:28:14.196Z,11.73
2022-10-31T19:30:42.851Z,11.72
2022-10-31T19:33:11.109Z,11.68
2022-10-31T19:35:39.391Z,11.64
2022-10-31T19:38:08.909Z,11.61
2022-10-31T19:40:37.256Z,11.59
2022-10-31T19:43:05.488Z,11.55
2022-10-31T19:45:33.799Z,11.50
2022-10-31T19:48:02.435Z,11.47
2022-10-31T19:50:31.153Z,11.42
2022-10-31T19:52:59.459Z,11.37
2022-10-31T19:55:28.914Z,11.34
2022-10-31T19:58:01.752Z,11.31
2022-10-31T20:00:30.897Z,11.29
2022-10-31T20:02:59.913Z,11.27
2022-10-31T20:05:28.551Z,11.25
2022-10-31T20:07:57.321Z,11.23
2022-10-31T20:10:25.765Z,11.22
2022-10-31T20:12:53.987Z,11.22
2022-10-31T20:15:22.287Z,11.21
2022-10-31T20:17:50.507Z,11.18
2022-10-31T20:20:18.884Z,11.14
2022-10-31T20:22:49.982Z,11.11
2022-10-31T20:25:19.060Z,11.07
2022-10-31T20:27:47.421Z,11.05
2022-10-31T20:30:15.716Z,11.02
2022-10-31T20:32:48.993Z,10.98
2022-10-31T20:35:18.815Z,10.93
2022-10-31T20:37:47.143Z,10.88
2022-10-31T20:40:15.392Z,10.84
2022-10-31T20:42:43.615Z,10.81
2022-10-31T20:45:11.888Z,10.76
2022-10-31T20:47:41.313Z,10.72
2022-10-31T20:50:09.761Z,10.70
2022-10-31T20:52:38.181Z,10.66
2022-10-31T20:55:08.240Z,10.63
2022-10-31T20:57:36.594Z,10.61
2022-10-31T21:00:05.783Z,10.58
2022-10-31T21:02:35.099Z,10.55
2022-10-31T21:05:08.591Z,10.51
2022-10-31T21:07:39.594Z,10.45
2022-10-31T21:10:17.798Z,10.39
2022-10-31T21:12:46.100Z,10.31
2022-10-31T21:15:15.150Z,10.24
2022-10-31T21:17:43.428Z,10.18
2022-10-31T21:20:11.783Z,10.14
2022-10-31T21:22:40.624Z,10.09
2022-10-31T21:25:11.392Z,10.06
2022-10-31T21:27:40.259Z,10.04
2022-10-31T21:30:10.476Z,10.01
2022-10-31T21:33:24.575Z,10.00
2022-10-31T21:35:52.909Z,9.95
2022-10-31T21:38:21.200Z,9.90
2022-10-31T21:40:49.381Z,9.88
2022-10-31T21:43:17.574Z,9.87
2022-10-31T21:45:45.929Z,9.83
2022-10-31T21:48:14.437Z,9.79
2022-10-31T21:50:42.702Z,9.76
2022-10-31T21:53:29.368Z,9.71
2022-10-31T21:56:03.835Z,9.64
2022-10-31T21:58:34.805Z,9.57
2022-10-31T22:01:06.339Z,9.51
2022-10-31T22:03:36.149Z,9.44
2022-10-31T22:06:05.918Z,9.38
2022-10-31T22:08:34.591Z,9.32
2022-10-31T22:11:08.564Z,9.25
2022-10-31T22:13:37.446Z,9.18
2022-10-31T22:16:29.329Z,9.13
2022-10-31T22:19:00.048Z,9.08
2022-10-31T22:21:28.855Z,9.02
2022-10-31T22:24:01.972Z,8.96
2022-10-31T22:26:33.901Z,8.94
2022-10-31T22:29:05.481Z,8.95
2022-10-31T22:31:34.840Z,8.98
2022-10-31T22:34:03.109Z,8.97
2022-10-31T22:36:32.052Z,8.96
2022-10-31T22:39:00.586Z,8.97
2022-10-31T22:41:30.680Z,8.95
2022-10-31T22:44:00.648Z,8.92
2022-10-31T22:46:32.423Z,8.90
2022-10-31T22:49:03.698Z,8.86
2022-10-31T22:51:42.165Z,8.83
2022-10-31T22:54:16.438Z,8.79
2022-10-31T22:56:45.421Z,8.74
2022-10-31T22:59:15.101Z,8.69
2022-10-31T23:01:46.960Z,8.66
2022-10-31T23:04:16.868Z,8.62
2022-10-31T23:06:45.798Z,8.61
2022-10-31T23:09:16.306Z,8.60
2022-10-31T23:11:45.714Z,8.57
2022-10-31T23:14:20.890Z,8.53
2022-10-31T23:16:53.584Z,8.51
2022-10-31T23:19:29.377Z,8.46
2022-10-31T23:22:01.101Z,8.43
2022-10-31T23:24:33.209Z,8.40
2022-10-31T23:27:09.449Z,8.38
2022-10-31T23:30:05.673Z,8.38
2022-10-31T23:32:37.211Z,8.36
2022-10-31T23:35:08.545Z,8.35
2022-10-31T23:37:38.587Z,8.33
2022-10-31T23:40:11.153Z,8.30
2022-10-31T23:42:39.414Z,8.26
2022-10-31T23:45:08.864Z,8.23
2022-10-31T23:47:42.342Z,8.20
2022-10-31T23:50:11.922Z,8.14
2022-10-31T23:52:40.091Z,8.10
2022-10-31T23:55:08.424Z,8.07
2022-10-31T23:57:36.628Z,8.04
